Time;durP1;ratioP1;P1;durP2;ratioP2;P2;SDS_P1;SDS_P2;PMS_P1;PMS_P2;Temp;Humidity;BMP_temperature;BMP_pressure;BME280_temperature;BME280_humidity;BME280_pressure;Samples;Min_cycle;Max_cycle;Signal;HPM_P1;HPM_P2
2023/12/05 00:04:23;;;;;;;12.25;5.78;;;;;;;15.73;100.00;101345.75;10565179;28;20075;-75
2023/12/05 00:09:45;;;;;;;7.65;4.68;;;;;;;15.59;100.00;101344.78;10555592;28;20129;-75
2023/12/05 00:15:08;;;;;;;12.95;4.70;;;;;;;15.57;100.00;101351.88;10549434;28;20514;-76
2023/12/05 00:20:32;;;;;;;5.10;3.97;;;;;;;15.67;100.00;101348.38;10546596;28;20139;-75
2023/12/05 00:25:55;;;;;;;10.00;4.65;;;;;;;15.54;100.00;101365.19;10544277;28;20051;-76
2023/12/05 00:31:17;;;;;;;5.70;3.85;;;;;;;15.68;100.00;101362.59;10558579;28;20647;-76
2023/12/05 00:36:41;;;;;;;6.25;3.63;;;;;;;16.03;100.00;101360.03;10571291;28;20048;-76
2023/12/05 00:42:03;;;;;;;6.45;4.22;;;;;;;16.22;100.00;101361.84;10556573;28;20078;-76
2023/12/05 00:47:26;;;;;;;9.38;4.32;;;;;;;16.49;100.00;101361.91;10562435;27;20125;-77
2023/12/05 00:52:50;;;;;;;7.32;4.15;;;;;;;16.65;100.00;101369.06;10578186;27;20051;-76
2023/12/05 00:58:12;;;;;;;7.05;4.00;;;;;;;16.50;100.00;101363.69;10559588;27;20067;-76
2023/12/05 01:03:35;;;;;;;6.95;3.78;;;;;;;16.34;100.00;101367.22;10594757;27;20051;-76
2023/12/05 01:08:59;;;;;;;5.70;4.65;;;;;;;16.30;100.00;101355.66;10584048;27;20047;-76
2023/12/05 01:14:21;;;;;;;5.50;4.05;;;;;;;16.20;100.00;101360.97;10577627;27;20497;-76
2023/12/05 01:19:44;;;;;;;5.22;4.72;;;;;;;16.08;100.00;101344.97;10565808;27;20040;-76
2023/12/05 01:25:08;;;;;;;15.20;5.40;;;;;;;15.76;100.00;101345.75;10589289;27;20315;-76
2023/12/05 01:30:31;;;;;;;7.82;4.03;;;;;;;15.74;100.00;101339.53;10572491;27;20105;-76
2023/12/05 01:35:53;;;;;;;7.78;3.95;;;;;;;15.67;100.00;101343.06;10570490;27;20047;-76
2023/12/05 01:41:17;;;;;;;5.05;4.03;;;;;;;15.60;100.00;101345.69;10571655;27;20043;-76
2023/12/05 01:46:40;;;;;;;10.45;4.30;;;;;;;15.56;100.00;101342.09;10565586;27;20084;-76
2023/12/05 01:52:03;;;;;;;8.95;4.32;;;;;;;15.51;100.00;101333.19;10568648;27;20554;-76
2023/12/05 01:57:29;;;;;;;5.22;3.75;;;;;;;15.44;100.00;101331.38;10576836;27;20397;-76
2023/12/05 02:02:52;;;;;;;11.32;6.25;;;;;;;15.23;100.00;101333.94;10592143;27;20055;-76
2023/12/05 02:08:18;;;;;;;8.13;5.22;;;;;;;15.08;100.00;101327.66;10561458;27;20139;-75
2023/12/05 02:13:43;;;;;;;11.23;5.70;;;;;;;14.98;100.00;101322.25;10580611;27;20047;-75
2023/12/05 02:19:24;;;;;;;6.53;4.22;;;;;;;14.88;100.00;101316.00;10575696;27;20377;-76
2023/12/05 02:24:57;;;;;;;10.52;4.57;;;;;;;15.26;100.00;101318.88;10584496;27;20511;-75
2023/12/05 02:30:21;;;;;;;7.03;3.88;;;;;;;15.55;100.00;101319.06;10572687;27;20075;-75
2023/12/05 02:35:44;;;;;;;7.40;3.67;;;;;;;15.80;100.00;101315.59;10586473;27;20047;-76
2023/12/05 02:41:14;;;;;;;10.93;4.20;;;;;;;16.02;100.00;101319.19;10572493;27;20553;-76
2023/12/05 02:46:40;;;;;;;12.95;4.05;;;;;;;16.01;100.00;101313.88;10574580;27;20043;-75
2023/12/05 02:52:03;;;;;;;6.82;3.45;;;;;;;15.91;100.00;101296.97;10573600;27;20058;-75
2023/12/05 02:57:25;;;;;;;7.43;3.85;;;;;;;15.71;100.00;101306.69;10538866;27;20092;-75
2023/12/05 03:02:49;;;;;;;3.97;3.53;;;;;;;15.48;100.00;101301.25;10580223;27;20047;-75
2023/12/05 03:08:12;;;;;;;9.98;3.15;;;;;;;15.39;100.00;101310.06;10573037;27;20056;-76
2023/12/05 03:13:34;;;;;;;7.68;3.45;;;;;;;15.40;100.00;101310.97;10570009;28;20453;-75
2023/12/05 03:18:58;;;;;;;5.35;3.70;;;;;;;15.34;100.00;101306.50;10561167;28;20047;-76
2023/12/05 03:24:20;;;;;;;6.05;2.95;;;;;;;15.42;100.00;101304.78;10581352;28;20100;-76
2023/12/05 03:29:43;;;;;;;9.73;3.85;;;;;;;15.40;100.00;101300.31;10552440;28;20035;-76
2023/12/05 03:35:08;;;;;;;10.30;3.40;;;;;;;15.22;100.00;101286.94;10599156;28;20051;-76
2023/12/05 03:40:31;;;;;;;6.65;3.33;;;;;;;15.13;100.00;101291.31;10562673;28;20075;-76
2023/12/05 03:45:53;;;;;;;8.50;4.47;;;;;;;15.24;100.00;101291.38;10574154;28;20047;-76
2023/12/05 03:51:17;;;;;;;7.78;4.28;;;;;;;15.21;100.00;101288.72;10570009;28;20100;-75
2023/12/05 03:56:40;;;;;;;17.20;10.90;;;;;;;15.15;100.00;101289.56;10572244;28;20054;-76
2023/12/05 04:02:02;;;;;;;9.38;4.57;;;;;;;15.42;100.00;101290.59;10570632;27;20545;-76
2023/12/05 04:07:26;;;;;;;9.43;3.58;;;;;;;15.52;100.00;101293.31;10558206;28;20051;-76
2023/12/05 04:12:49;;;;;;;6.78;3.00;;;;;;;15.72;100.00;101293.38;10559634;28;20051;-75
2023/12/05 04:18:11;;;;;;;5.13;3.10;;;;;;;15.81;100.00;101303.19;10568308;28;20067;-75
2023/12/05 04:23:35;;;;;;;7.93;3.65;;;;;;;15.54;100.00;101296.88;10569322;27;20047;-76
2023/12/05 04:28:58;;;;;;;11.20;4.82;;;;;;;15.38;100.00;101295.00;10593738;27;20251;-75
2023/12/05 04:34:20;;;;;;;8.80;6.10;;;;;;;15.28;100.00;101306.50;10579324;27;20055;-75
2023/12/05 04:39:44;;;;;;;8.57;3.80;;;;;;;15.45;100.00;101306.56;10569232;27;20138;-75
2023/12/05 04:45:08;;;;;;;6.97;3.60;;;;;;;15.51;100.00;101309.22;10564296;28;20079;-75
2023/12/05 04:50:30;;;;;;;23.67;19.30;;;;;;;15.22;100.00;101309.13;10585574;27;20051;-75
2023/12/05 04:55:54;;;;;;;30.13;19.90;;;;;;;15.06;100.00;101309.91;10550569;27;20047;-75
2023/12/05 05:01:17;;;;;;;11.60;7.13;;;;;;;15.12;100.00;101318.78;10595798;27;20096;-75
2023/12/05 05:06:40;;;;;;;10.85;9.18;;;;;;;15.25;100.00;101319.75;10569739;27;20039;-75
2023/12/05 05:12:08;;;;;;;13.25;9.30;;;;;;;15.03;100.00;101321.38;10594680;27;20075;-75
2023/12/05 05:17:31;;;;;;;8.82;5.88;;;;;;;14.95;100.00;101317.81;10603951;27;20496;-75
2023/12/05 05:22:53;;;;;;;11.57;7.90;;;;;;;14.91;100.00;101309.78;10572285;27;20113;-75
2023/12/05 05:28:17;;;;;;;11.75;5.97;;;;;;;14.95;100.00;101306.28;10598668;27;20048;-75
2023/12/05 05:33:39;;;;;;;9.23;6.45;;;;;;;15.01;100.00;101301.00;10576820;27;20136;-75
2023/12/05 05:39:02;;;;;;;13.85;8.07;;;;;;;15.10;100.00;101307.25;10551612;27;20048;-75
2023/12/05 05:44:27;;;;;;;70.88;56.13;;;;;;;15.20;100.00;101307.31;10555950;27;20047;-75
2023/12/05 05:49:52;;;;;;;27.98;22.70;;;;;;;15.28;100.00;101308.25;10549681;27;20520;-75
2023/12/05 05:55:15;;;;;;;19.75;13.65;;;;;;;15.40;100.00;101311.84;10598029;27;20213;-76
2023/12/05 06:00:39;;;;;;;23.75;14.20;;;;;;;15.63;100.00;101314.63;10592984;27;20055;-75
2023/12/05 06:06:02;;;;;;;21.05;13.70;;;;;;;15.86;100.00;101312.97;10588699;27;20186;-75
2023/12/05 06:11:27;;;;;;;21.85;15.80;;;;;;;17.53;100.00;101317.31;10597544;27;20055;-76
2023/12/05 06:16:51;;;;;;;22.15;15.63;;;;;;;20.62;100.00;101307.94;10585601;27;20050;-75
2023/12/05 06:22:13;;;;;;;21.10;14.20;;;;;;;23.07;100.00;101310.69;10577023;27;20043;-76
2023/12/05 06:27:36;;;;;;;16.63;8.52;;;;;;;24.62;100.00;101309.56;10594902;27;20055;-76
2023/12/05 06:33:00;;;;;;;7.68;3.83;;;;;;;24.91;100.00;101315.84;10597542;27;20138;-77
2023/12/05 06:38:22;;;;;;;7.65;3.75;;;;;;;24.75;100.00;101303.75;10596467;27;20050;-77
2023/12/05 06:43:44;;;;;;;7.90;3.83;;;;;;;24.81;100.00;101317.94;10579423;27;20085;-77
2023/12/05 06:49:08;;;;;;;12.20;4.13;;;;;;;25.99;95.88;101301.88;10598096;27;20049;-77
2023/12/05 06:54:31;;;;;;;10.07;4.45;;;;;;;26.27;90.50;101309.81;10583573;27;20142;-78
2023/12/05 06:59:54;;;;;;;8.90;5.13;;;;;;;27.69;78.56;101315.41;10579507;27;20050;-77
2023/12/05 07:05:18;;;;;;;5.50;4.10;;;;;;;28.84;68.68;101314.31;10578847;27;20065;-78
2023/12/05 07:10:40;;;;;;;10.75;4.32;;;;;;;29.80;58.40;101312.78;10592871;27;20043;-77
2023/12/05 07:16:03;;;;;;;11.15;4.50;;;;;;;29.29;61.16;101319.19;10588063;27;20055;-78
2023/12/05 07:21:27;;;;;;;10.10;4.30;;;;;;;30.42;56.36;101313.81;10580475;28;20102;-77
2023/12/05 07:26:49;;;;;;;7.63;3.55;;;;;;;31.51;49.89;101317.22;10600829;28;20103;-78
2023/12/05 07:32:12;;;;;;;5.72;3.53;;;;;;;32.39;45.72;101325.19;10599080;28;20047;-78
2023/12/05 07:37:36;;;;;;;6.13;3.10;;;;;;;33.34;42.67;101309.56;10582810;27;20047;-77
2023/12/05 07:42:58;;;;;;;7.78;2.63;;;;;;;33.48;40.39;101300.34;10594990;28;20043;-78
2023/12/05 07:48:21;;;;;;;13.40;2.85;;;;;;;33.81;39.07;101303.41;10542444;28;20051;-78
2023/12/05 07:53:46;;;;;;;11.38;3.45;;;;;;;34.51;36.84;101322.00;10529254;28;20393;-78
2023/12/05 07:59:09;;;;;;;5.57;1.65;;;;;;;33.40;38.37;101324.66;10531942;28;20117;-78
2023/12/05 08:04:31;;;;;;;7.80;2.40;;;;;;;29.95;45.07;101319.25;10523453;28;20685;-78
2023/12/05 08:09:55;;;;;;;5.45;2.70;;;;;;;27.82;52.64;101310.28;10530939;28;20138;-78
2023/12/05 08:15:18;;;;;;;9.25;2.35;;;;;;;26.58;61.22;101304.03;10495562;28;20458;-77
2023/12/05 08:20:40;;;;;;;6.60;2.40;;;;;;;25.24;71.15;101313.75;10487506;28;20052;-78
2023/12/05 08:26:04;;;;;;;9.75;2.53;;;;;;;24.09;82.42;101308.59;10537854;28;20094;-78
2023/12/05 08:31:27;;;;;;;11.60;3.80;;;;;;;24.10;86.26;101312.16;10537100;28;20051;-77
2023/12/05 08:36:50;;;;;;;10.32;2.42;;;;;;;25.96;71.66;101307.44;10522955;28;20488;-77
2023/12/05 08:42:14;;;;;;;11.27;1.98;;;;;;;30.16;48.44;101304.41;10536808;28;20553;-77
2023/12/05 08:47:36;;;;;;;11.10;2.30;;;;;;;32.74;40.96;101298.25;10575124;27;20039;-78
2023/12/05 08:52:58;;;;;;;5.78;2.17;;;;;;;32.26;40.49;101306.00;10606423;27;20396;-77
2023/12/05 08:58:22;;;;;;;10.20;2.20;;;;;;;28.61;48.46;101304.59;10591860;27;20054;-78
2023/12/05 09:03:45;;;;;;;12.07;2.97;;;;;;;26.29;62.27;101304.34;10632336;27;20373;-78
2023/12/05 09:09:07;;;;;;;8.80;2.47;;;;;;;24.86;75.71;101298.88;10622988;27;20555;-78
2023/12/05 09:14:31;;;;;;;7.78;2.25;;;;;;;24.60;78.26;101292.56;10604662;27;20281;-78
2023/12/05 09:19:54;;;;;;;12.05;2.30;;;;;;;24.20;82.16;101287.59;10606445;27;20043;-77
2023/12/05 09:25:17;;;;;;;7.88;2.35;;;;;;;23.99;85.23;101271.16;10604884;27;20531;-78
2023/12/05 09:30:41;;;;;;;9.80;2.42;;;;;;;24.65;79.58;101269.91;10591216;27;20043;-78
2023/12/05 09:36:04;;;;;;;10.32;2.28;;;;;;;26.49;67.53;101247.53;10600656;27;20128;-78
2023/12/05 09:41:27;;;;;;;11.95;2.40;;;;;;;30.53;45.67;101240.47;10590140;27;20047;-77
2023/12/05 09:46:53;;;;;;;9.15;2.72;;;;;;;31.75;41.16;101225.59;10603722;27;20043;-77
2023/12/05 09:52:15;;;;;;;8.43;3.70;;;;;;;28.07;46.44;101207.72;10601210;27;20042;-77
2023/12/05 09:57:39;;;;;;;7.15;2.55;;;;;;;25.65;56.57;101206.78;10570271;27;20051;-77
2023/12/05 10:03:07;;;;;;;8.60;2.38;;;;;;;25.90;60.34;101193.16;10586663;27;20047;-76
2023/12/05 10:08:30;;;;;;;6.88;2.20;;;;;;;29.40;47.82;101190.78;10595118;27;20051;-77
2023/12/05 10:13:53;;;;;;;10.15;2.35;;;;;;;29.70;45.93;101159.97;10589201;27;20058;-76
2023/12/05 10:19:18;;;;;;;7.30;2.13;;;;;;;26.89;54.07;101163.59;10603173;27;20092;-78
2023/12/05 10:24:43;;;;;;;14.25;3.00;;;;;;;26.17;61.79;101165.81;10603227;27;20135;-77
2023/12/05 10:30:06;;;;;;;8.38;2.63;;;;;;;28.14;51.55;101165.75;10588100;27;20138;-78
2023/12/05 10:35:30;;;;;;;10.45;2.28;;;;;;;30.12;44.50;101157.59;10601841;27;20051;-78
2023/12/05 10:40:54;;;;;;;9.13;2.58;;;;;;;28.58;44.96;101155.28;10602207;27;20067;-78
2023/12/05 10:46:17;;;;;;;5.50;2.00;;;;;;;26.83;52.48;101157.53;10575828;27;20048;-77
2023/12/05 10:51:41;;;;;;;10.15;2.40;;;;;;;28.06;48.41;101157.94;10583572;27;20497;-77
2023/12/05 10:57:09;;;;;;;8.73;2.60;;;;;;;27.33;49.20;101147.06;10587502;27;20055;-78
2023/12/05 11:02:32;;;;;;;6.20;2.20;;;;;;;29.03;45.33;101146.50;10598488;27;20070;-78
2023/12/05 11:07:57;;;;;;;7.72;2.30;;;;;;;29.50;43.01;101130.28;10601014;27;20130;-77
2023/12/05 11:13:21;;;;;;;9.38;1.85;;;;;;;28.97;44.40;101132.38;10596329;28;20051;-77
2023/12/05 11:18:45;;;;;;;5.22;1.90;;;;;;;27.76;46.63;101124.22;10564818;28;20055;-77
2023/12/05 11:24:39;;;;;;;7.78;2.00;;;;;;;27.53;49.87;101119.91;10545485;28;20116;-77
2023/12/05 11:30:31;;;;;;;7.28;2.95;;;;;;;28.39;48.30;101114.63;10568170;27;20078;-78
2023/12/05 11:36:15;;;;;;;8.13;2.58;;;;;;;27.82;50.69;101110.34;10589162;27;20043;-78
2023/12/05 11:41:37;;;;;;;11.13;3.08;;;;;;;27.01;56.00;101112.47;10607104;27;20043;-79
2023/12/05 11:47:03;;;;;;;10.88;2.85;;;;;;;26.83;56.50;101103.34;10583629;27;20408;-79
2023/12/05 11:52:37;;;;;;;5.82;1.90;;;;;;;26.08;60.85;101106.66;10566388;28;20081;-78
2023/12/05 11:58:00;;;;;;;10.57;2.70;;;;;;;25.25;67.61;101093.88;10566761;27;20075;-78
2023/12/05 12:03:22;;;;;;;8.82;3.05;;;;;;;24.93;71.84;101081.66;10608409;27;20082;-78
2023/12/05 12:08:48;;;;;;;7.80;2.45;;;;;;;24.76;72.94;101087.63;10604004;27;20055;-77
2023/12/05 12:14:14;;;;;;;11.73;2.20;;;;;;;25.20;65.98;101091.38;10607429;27;20043;-77
2023/12/05 12:19:40;;;;;;;7.70;2.47;;;;;;;24.58;68.71;101082.94;10609223;27;20047;-78
2023/12/05 12:25:11;;;;;;;9.25;2.20;;;;;;;24.21;72.58;101076.19;10607913;27;20050;-78
2023/12/05 12:30:35;;;;;;;8.63;2.40;;;;;;;23.91;75.29;101074.50;10586210;27;20485;-78
2023/12/05 12:35:58;;;;;;;11.85;2.83;;;;;;;23.24;82.26;101078.50;10583037;27;20472;-77
2023/12/05 12:41:22;;;;;;;10.13;3.00;;;;;;;22.79;88.65;101072.72;10606975;27;20047;-78
2023/12/05 12:46:45;;;;;;;8.18;2.28;;;;;;;22.60;91.13;101075.03;10607187;27;20497;-78
2023/12/05 12:52:08;;;;;;;13.43;2.22;;;;;;;22.64;90.41;101095.56;10606659;27;20055;-78
2023/12/05 12:57:32;;;;;;;8.10;2.10;;;;;;;22.61;89.61;101092.97;10605550;27;20035;-78
2023/12/05 13:02:55;;;;;;;9.05;2.10;;;;;;;22.33;92.28;101092.84;10605343;27;20051;-78
2023/12/05 13:08:17;;;;;;;15.13;2.67;;;;;;;21.92;97.72;101088.56;10604243;27;20130;-77
2023/12/05 13:13:41;;;;;;;9.45;2.53;;;;;;;21.86;100.00;101091.38;10602746;27;20496;-78
2023/12/05 13:19:04;;;;;;;9.02;2.15;;;;;;;21.81;100.00;101082.53;10580362;27;20043;-77
2023/12/05 13:24:26;;;;;;;9.57;2.60;;;;;;;21.67;100.00;101096.31;10562047;28;20116;-78
2023/12/05 13:29:53;;;;;;;11.88;2.60;;;;;;;21.51;100.00;101099.44;10595232;27;20047;-78
2023/12/05 13:35:15;;;;;;;9.32;2.70;;;;;;;21.31;100.00;101108.84;10599563;27;20075;-78
2023/12/05 13:40:38;;;;;;;9.75;2.72;;;;;;;21.23;100.00;101113.50;10604785;27;20381;-78
2023/12/05 13:46:01;;;;;;;7.97;2.83;;;;;;;21.35;100.00;101113.22;10603095;27;20070;-77
2023/12/05 13:51:24;;;;;;;13.35;3.25;;;;;;;21.56;100.00;101106.47;10568273;27;20058;-76
2023/12/05 13:56:46;;;;;;;12.45;2.50;;;;;;;21.46;100.00;101096.88;10599272;27;20051;-77
2023/12/05 14:02:10;;;;;;;8.02;3.10;;;;;;;21.28;100.00;101084.72;10565413;27;20043;-77
2023/12/05 14:07:33;;;;;;;7.45;3.10;;;;;;;21.11;100.00;101096.75;10563224;27;20485;-77
2023/12/05 14:12:56;;;;;;;7.10;3.17;;;;;;;20.86;100.00;101091.03;10588837;27;20138;-78
2023/12/05 14:18:20;;;;;;;11.65;3.35;;;;;;;20.58;100.00;101082.69;10588016;27;20043;-77
2023/12/05 14:23:42;;;;;;;11.60;6.40;;;;;;;20.32;100.00;101088.53;10602455;27;20075;-77
2023/12/05 14:29:04;;;;;;;14.23;5.13;;;;;;;20.07;100.00;101096.16;10602218;27;20047;-77
2023/12/05 14:34:28;;;;;;;59.33;27.92;;;;;;;19.85;100.00;101098.31;10601247;27;20066;-77
2023/12/05 14:39:51;;;;;;;28.73;14.25;;;;;;;19.62;100.00;101083.53;10600941;27;20519;-78
2023/12/05 14:45:13;;;;;;;19.00;8.15;;;;;;;19.34;100.00;101088.41;10601528;27;20043;-78
2023/12/05 14:50:37;;;;;;;30.15;13.07;;;;;;;19.13;100.00;101094.06;10573658;27;20104;-78
2023/12/05 14:56:00;;;;;;;41.97;21.55;;;;;;;18.89;100.00;101088.16;10595497;27;20047;-78
2023/12/05 15:01:23;;;;;;;30.98;16.10;;;;;;;18.66;100.00;101096.47;10587105;27;20043;-78
2023/12/05 15:06:47;;;;;;;20.50;14.90;;;;;;;18.38;100.00;101094.97;10568205;27;20133;-77
2023/12/05 15:12:09;;;;;;;19.58;11.40;;;;;;;18.13;100.00;101097.00;10558646;28;20580;-78
2023/12/05 15:17:31;;;;;;;12.23;7.82;;;;;;;17.97;100.00;101089.19;10580984;28;20074;-76
2023/12/05 15:22:55;;;;;;;10.68;4.72;;;;;;;18.08;100.00;101097.97;10597577;28;20059;-78
2023/12/05 15:28:18;;;;;;;10.32;4.35;;;;;;;18.23;100.00;101101.38;10585682;28;20058;-76
2023/12/05 15:33:40;;;;;;;13.25;5.30;;;;;;;18.29;100.00;101098.66;10589751;28;20050;-77
2023/12/05 15:39:07;;;;;;;13.52;5.80;;;;;;;18.13;100.00;101094.34;10571610;28;20044;-75
2023/12/05 15:44:29;;;;;;;12.52;5.53;;;;;;;17.97;100.00;101084.72;10575506;28;20053;-76
2023/12/05 15:49:52;;;;;;;7.18;4.13;;;;;;;17.81;100.00;101100.00;10567434;27;20436;-78
2023/12/05 15:55:16;;;;;;;12.77;7.25;;;;;;;17.89;100.00;101105.28;10573744;28;20389;-78
2023/12/05 16:00:39;;;;;;;21.50;12.32;;;;;;;17.72;100.00;101115.22;10599735;27;20047;-77
2023/12/05 16:06:01;;;;;;;14.50;9.18;;;;;;;17.59;100.00;101118.84;10599036;28;20065;-77
2023/12/05 16:11:25;;;;;;;18.55;11.95;;;;;;;17.35;100.00;101127.91;10571701;28;20047;-78
2023/12/05 16:16:48;;;;;;;11.80;5.43;;;;;;;17.19;100.00;101132.44;10568792;28;20509;-77
2023/12/05 16:22:10;;;;;;;14.13;7.43;;;;;;;17.37;100.00;101126.13;10597781;27;20503;-77
2023/12/05 16:27:34;;;;;;;13.00;8.88;;;;;;;17.15;100.00;101112.00;10554084;27;20079;-77
2023/12/05 16:32:56;;;;;;;13.90;7.20;;;;;;;16.93;100.00;101111.25;10597789;27;20043;-77
2023/12/05 16:38:20;;;;;;;19.05;8.60;;;;;;;16.95;100.00;101125.44;10590170;27;20053;-77
2023/12/05 16:43:44;;;;;;;14.00;8.10;;;;;;;16.89;100.00;101136.13;10595725;27;20088;-76
2023/12/05 16:49:06;;;;;;;36.90;28.60;;;;;;;16.69;100.00;101154.88;10602644;27;20126;-78
2023/12/05 16:54:28;;;;;;;24.52;15.32;;;;;;;16.68;100.00;101152.22;10583302;27;20146;-76
2023/12/05 16:59:52;;;;;;;17.92;7.70;;;;;;;16.81;100.00;101159.28;10579181;27;20040;-77
2023/12/05 17:05:15;;;;;;;12.80;9.98;;;;;;;16.72;100.00;101157.56;10597887;27;20065;-76
2023/12/05 17:10:37;;;;;;;15.90;10.32;;;;;;;16.63;100.00;101159.34;10598556;27;20050;-77
2023/12/05 17:16:01;;;;;;;11.35;7.53;;;;;;;16.83;100.00;101156.59;10586562;27;20489;-77
2023/12/05 17:21:24;;;;;;;15.50;9.77;;;;;;;16.90;100.00;101156.59;10579337;27;20039;-76
2023/12/05 17:26:47;;;;;;;10.30;4.82;;;;;;;16.66;100.00;101157.56;10599266;27;20138;-75
2023/12/05 17:32:11;;;;;;;9.75;5.32;;;;;;;16.37;100.00;101140.72;10572129;27;20472;-76
2023/12/05 17:37:35;;;;;;;13.23;8.45;;;;;;;16.45;100.00;101146.91;10590674;27;20055;-76
2023/12/05 17:42:57;;;;;;;12.60;6.10;;;;;;;16.20;100.00;101138.09;10584856;27;20051;-77
2023/12/05 17:48:22;;;;;;;30.15;18.33;;;;;;;16.17;100.00;101146.06;10577322;27;20043;-77
2023/12/05 17:53:44;;;;;;;16.13;8.55;;;;;;;16.21;100.00;101150.50;10569901;27;20058;-77
2023/12/05 17:59:07;;;;;;;26.05;14.25;;;;;;;16.15;100.00;101155.84;10602747;27;20126;-77
2023/12/05 18:04:31;;;;;;;17.00;8.30;;;;;;;16.41;100.00;101146.94;10577992;27;20043;-76
2023/12/05 18:09:53;;;;;;;14.00;7.53;;;;;;;16.60;100.00;101130.03;10590828;27;20421;-77
2023/12/05 18:15:16;;;;;;;29.98;17.17;;;;;;;16.58;100.00;101124.69;10594872;27;20108;-76
2023/12/05 18:20:39;;;;;;;26.23;17.70;;;;;;;16.45;100.00;101127.38;10582998;27;20043;-76
2023/12/05 18:26:02;;;;;;;18.35;12.43;;;;;;;16.22;100.00;101120.31;10603525;27;20054;-77
2023/12/05 18:31:25;;;;;;;11.32;6.57;;;;;;;16.03;100.00;101117.66;10571076;27;20039;-76
2023/12/05 18:36:50;;;;;;;27.08;12.98;;;;;;;15.99;100.00;101110.59;10595429;27;20088;-76
2023/12/05 18:42:12;;;;;;;26.40;13.85;;;;;;;15.83;100.00;101083.06;10579680;27;20059;-77
2023/12/05 18:47:35;;;;;;;11.80;6.55;;;;;;;15.58;100.00;101086.63;10594176;27;20500;-77
2023/12/05 18:52:59;;;;;;;23.73;12.18;;;;;;;15.64;100.00;101078.66;10599268;27;20441;-76
2023/12/05 18:58:21;;;;;;;14.52;6.35;;;;;;;15.60;100.00;101088.44;10600538;27;20057;-76
2023/12/05 19:03:44;;;;;;;10.68;6.95;;;;;;;15.34;100.00;101103.44;10589652;27;20043;-76
2023/12/05 19:09:08;;;;;;;15.13;7.72;;;;;;;15.64;100.00;101114.13;10575768;27;20046;-77
2023/12/05 19:14:31;;;;;;;19.15;12.65;;;;;;;15.85;100.00;101099.94;10572662;27;20524;-77
2023/12/05 19:19:53;;;;;;;15.25;10.25;;;;;;;15.78;100.00;101101.72;10591337;27;20047;-77
2023/12/05 19:25:17;;;;;;;11.57;7.45;;;;;;;15.85;100.00;101090.19;10601939;28;20138;-76
2023/12/05 19:30:40;;;;;;;25.77;15.60;;;;;;;15.90;100.00;101091.06;10587557;28;20055;-76
2023/12/05 19:36:02;;;;;;;10.57;7.80;;;;;;;15.61;100.00;101079.56;10589522;28;20426;-77
2023/12/05 19:41:26;;;;;;;10.80;6.32;;;;;;;15.50;100.00;101086.59;10584342;28;20127;-76
2023/12/05 19:46:49;;;;;;;24.80;13.60;;;;;;;15.67;100.00;101089.31;10602053;28;20416;-77
2023/12/05 19:52:11;;;;;;;10.75;5.25;;;;;;;15.72;100.00;101079.53;10588502;28;20535;-77
2023/12/05 19:57:35;;;;;;;11.07;5.50;;;;;;;15.65;100.00;101075.09;10604200;27;20067;-76
2023/12/05 20:02:57;;;;;;;12.38;4.97;;;;;;;15.67;100.00;101055.59;10606049;27;20043;-77
2023/12/05 20:08:20;;;;;;;11.15;5.28;;;;;;;15.74;100.00;101044.06;10598703;27;20058;-77
2023/12/05 20:13:44;;;;;;;11.63;4.70;;;;;;;15.65;100.00;101044.06;10572267;27;20043;-78
2023/12/05 20:19:06;;;;;;;16.02;6.38;;;;;;;15.61;100.00;101058.25;10583748;27;20044;-78
2023/12/05 20:24:29;;;;;;;11.32;5.35;;;;;;;15.67;100.00;101049.38;10581051;27;20050;-77
2023/12/05 20:29:53;;;;;;;13.32;6.57;;;;;;;15.78;100.00;101051.16;10595576;27;20142;-77
2023/12/05 20:35:15;;;;;;;17.17;8.25;;;;;;;15.81;100.00;101051.16;10574831;27;20062;-77
2023/12/05 20:40:40;;;;;;;13.43;6.97;;;;;;;15.89;100.00;101049.34;10606001;27;20489;-77
2023/12/05 20:46:06;;;;;;;14.38;6.03;;;;;;;15.94;100.00;101038.72;10590210;27;20452;-77
2023/12/05 20:51:28;;;;;;;24.88;10.25;;;;;;;16.07;100.00;101039.56;10604463;27;20123;-77
2023/12/05 20:56:50;;;;;;;15.70;6.38;;;;;;;16.07;100.00;101036.91;10605338;27;20054;-77
2023/12/05 21:02:14;;;;;;;9.88;4.97;;;;;;;15.95;100.00;101028.03;10598115;27;20043;-77
2023/12/05 21:07:37;;;;;;;13.85;6.80;;;;;;;15.99;100.00;101036.03;10572802;27;20043;-77
2023/12/05 21:12:59;;;;;;;20.20;9.48;;;;;;;16.00;100.00;101029.81;10604894;27;20047;-77
2023/12/05 21:18:23;;;;;;;16.52;7.95;;;;;;;15.93;100.00;101028.94;10592259;27;20447;-78
2023/12/05 21:23:46;;;;;;;15.20;4.72;;;;;;;15.86;100.00;101035.16;10549709;27;20087;-77
2023/12/05 21:29:08;;;;;;;7.53;4.63;;;;;;;15.97;100.00;101017.38;10562965;28;20393;-76
2023/12/05 21:34:32;;;;;;;7.82;3.83;;;;;;;15.95;100.00;101009.38;10556077;27;20481;-77
2023/12/05 21:39:55;;;;;;;9.52;4.35;;;;;;;16.13;100.00;101002.25;10605234;27;20047;-77
2023/12/05 21:45:18;;;;;;;9.40;4.47;;;;;;;16.20;100.00;100998.69;10595611;27;20039;-77
2023/12/05 21:50:41;;;;;;;8.15;4.70;;;;;;;16.41;100.00;100966.59;10590399;27;20496;-77
2023/12/05 21:56:04;;;;;;;9.90;4.85;;;;;;;16.31;100.00;100949.78;10602811;27;20205;-77
2023/12/05 22:01:27;;;;;;;7.78;4.30;;;;;;;16.43;100.00;100943.50;10566173;27;20047;-77
2023/12/05 22:06:51;;;;;;;10.48;5.35;;;;;;;16.62;100.00;100942.53;10563928;27;20063;-76
2023/12/05 22:12:13;;;;;;;8.45;4.95;;;;;;;16.70;100.00;100929.16;10580518;27;20795;-77
2023/12/05 22:17:36;;;;;;;11.02;3.95;;;;;;;16.60;100.00;100955.00;10592630;27;20055;-77
2023/12/05 22:23:00;;;;;;;11.48;5.38;;;;;;;16.65;100.00;100953.19;10602880;27;20092;-77
2023/12/05 22:28:22;;;;;;;6.07;4.15;;;;;;;16.48;100.00;100963.00;10566310;28;20502;-76
2023/12/05 22:33:45;;;;;;;11.13;4.53;;;;;;;16.18;100.00;100955.16;10566886;27;20047;-77
2023/12/05 22:39:10;;;;;;;9.90;3.58;;;;;;;15.99;100.00;100950.81;10577063;27;20046;-77
2023/12/05 22:44:32;;;;;;;6.20;3.70;;;;;;;16.27;100.00;100936.50;10575208;27;20043;-77
2023/12/05 22:49:55;;;;;;;8.98;3.58;;;;;;;16.25;100.00;100916.97;10587579;27;20043;-77
2023/12/05 22:55:19;;;;;;;7.32;3.80;;;;;;;16.49;100.00;100911.47;10601137;27;20042;-77
2023/12/05 23:00:41;;;;;;;14.73;6.93;;;;;;;16.74;100.00;100897.13;10584027;27;20473;-77
2023/12/05 23:06:04;;;;;;;10.10;3.83;;;;;;;16.65;100.00;100897.22;10567402;27;20055;-77
2023/12/05 23:11:28;;;;;;;17.73;6.25;;;;;;;16.57;100.00;100906.09;10594712;27;20127;-77
2023/12/05 23:16:50;;;;;;;14.63;4.10;;;;;;;16.58;100.00;100903.44;10552365;28;20051;-77
2023/12/05 23:22:13;;;;;;;9.55;3.92;;;;;;;16.61;100.00;100894.56;10565560;28;20071;-77
2023/12/05 23:27:37;;;;;;;42.03;13.93;;;;;;;16.91;100.00;100894.34;10574365;28;20070;-77
2023/12/05 23:32:59;;;;;;;11.60;4.38;;;;;;;17.11;100.00;100895.06;10590115;27;20067;-77
2023/12/05 23:38:21;;;;;;;11.27;4.03;;;;;;;16.98;100.00;100889.84;10579509;27;20073;-76
2023/12/05 23:43:45;;;;;;;6.10;3.60;;;;;;;17.05;100.00;100883.56;10587756;27;20047;-77
2023/12/05 23:49:08;;;;;;;18.27;7.47;;;;;;;17.19;100.00;100886.09;10595447;27;20120;-77
2023/12/05 23:54:30;;;;;;;11.50;3.90;;;;;;;17.30;100.00;100877.09;10595839;27;20039;-77
2023/12/05 23:59:54;;;;;;;13.52;3.88;;;;;;;17.38;100.00;100866.34;10576901;27;20057;-77
